KPZQ METAR Reports


Rogers City, Presque Isle County Airport, MI, United States (KPZQ) 45-24-25N 083-48-46W
May 30, 2024 - 04:55 AM EDT / 2024.05.30 0855 UTC
Wind: Calm:0
Visibility: 10 mile(s):0
Sky conditions: clear
Temperature: 37.9 F (3.3 C)
Dew Point: 35.2 F (1.8 C)
Relative Humidity: 89%
Pressure (altimeter): 30.22 in. Hg (1023 hPa)
ob: KPZQ 300855Z AUTO 00000KT 10SM CLR 03/02 A3022 RMK AO2 T00330018
cycle: 9

 

Rogers City METAR Meteogram

Weather Chart

Nearby METAR Reports

KPZQ - Rogers City, Michigan, USA
Distance from station: SSW 1mi, 2km
Updated: Thu, 30-May-2024 4:55am EDT
Clear
Clear
 Wind from calm
Wind: Calm
Temperature: 37°F, 3°C
Dew Point: 36°F, 2°C
Humidity: 93%
Barometer: 30.22 inHg, 1023.4 hPa
Clouds: Clear
Visibility: 10 miles, 16 km
2024/05/30 08:55 KPZQ 300855Z AUTO 00000KT 10SM CLR 03/02 A3022 RMK AO2 T00330018
KAPN - Alpena, Michigan, USA
Distance from station: SSE 27mi, 43km
Updated: Thu, 30-May-2024 4:54am EDT
Clear
Clear
 Wind from calm
Wind: Calm
Temperature: 41°F, 5°C
Dew Point: 37°F, 3°C
Humidity: 87%
Barometer: 30.21 inHg, 1023 hPa
Clouds: Clear
Visibility: 10 miles, 16 km
2024/05/30 08:54 KAPN 300854Z AUTO 00000KT 10SM CLR 05/03 A3021 RMK AO2 SLP232 T00500028 53008
 
KSLH - Cheboygan, Michigan, USA
Distance from station: WNW 38mi, 61km
Updated: Thu, 30-May-2024 4:55am EDT
Clear
Clear
 Wind from W
Wind: W 3 mph, 6 km/h
Temperature: 37°F, 3°C
Dew Point: 36°F, 2°C
Humidity: 93%
Barometer: 30.21 inHg, 1023 hPa
Clouds: Clear
Visibility: 10 miles, 16 km
2024/05/30 08:55 KSLH 300855Z AUTO 28003KT 10SM CLR 03/02 A3021 RMK AO2
KDRM - Drummond Is, Michigan, USA
Distance from station: N 40mi, 65km
Updated: Thu, 30-May-2024 4:55am EDT
Clear
Clear
 Wind from calm
Wind: Calm
Temperature: 39°F, 4°C
Dew Point: 39°F, 4°C
Humidity: 100%
Barometer: 30.21 inHg, 1023 hPa
Clouds: Clear
Visibility: 10 miles, 16 km
2024/05/30 08:55 KDRM 300855Z AUTO 00000KT 10SM CLR 04/04 A3021 RMK AO2 T00400035
 
KPLN - Pellston, Michigan, USA
Distance from station: WNW 49mi, 79km
Updated: Thu, 30-May-2024 4:54am EDT
Clear
Clear
 Wind from WNW
Wind: WNW 3 mph, 6 km/h
Temperature: 36°F, 2°C
Dew Point: 34°F, 1°C
Humidity: 93%
Barometer: 30.23 inHg, 1023.7 hPa
Clouds: Clear
Visibility: 10 miles, 16 km
2024/05/30 08:54 KPLN 300854Z AUTO 30003KT 10SM CLR 02/01 A3023 RMK AO2 SLP241 T00220011 53006
KMCD - Mackinac Island, Michigan, USA
Distance from station: NW 50mi, 80km
Updated: Thu, 30-May-2024 4:55am EDT
Clear
Clear
 Wind from NNE
Wind: NNE 9 mph, 15 km/h
Temperature: 45°F, 7°C
Wind Chill: 40°F, 4°C
Dew Point: 37°F, 3°C
Humidity: 76%
Barometer: 30.22 inHg, 1023.4 hPa
Clouds: Clear
Visibility: 10 miles, 16 km
2024/05/30 08:55 KMCD 300855Z AUTO 03008KT 10SM CLR 07/03 A3022 RMK AO2 T00660030